createdAt,value
2022-08-08T00:19:27.613Z,14.80
2022-08-08T00:22:03.905Z,14.90
2022-08-08T00:24:42.307Z,14.80
2022-08-08T00:27:12.587Z,14.80
2022-08-08T00:32:56.517Z,14.80
2022-08-08T00:35:48.942Z,14.80
2022-08-08T00:38:51.772Z,14.80
2022-08-08T00:42:09.045Z,14.70
2022-08-08T00:45:27.238Z,14.60
2022-08-08T00:48:59.255Z,14.50
2022-08-08T00:52:39.003Z,14.50
2022-08-08T00:55:53.755Z,14.40
2022-08-08T00:58:59.868Z,14.20
2022-08-08T01:03:16.183Z,14.10
2022-08-08T01:12:39.218Z,13.90
2022-08-08T01:15:54.244Z,13.90
2022-08-08T01:19:42.134Z,13.90
2022-08-08T01:22:38.325Z,13.80
2022-08-08T01:25:40.578Z,13.80
2022-08-08T01:28:45.353Z,13.80
2022-08-08T01:32:15.235Z,13.70
2022-08-08T01:35:29.548Z,13.70
2022-08-08T01:50:48.895Z,13.70
2022-08-08T02:00:17.069Z,13.40
2022-08-08T02:12:57.285Z,13.30
2022-08-08T02:16:20.744Z,13.20
2022-08-08T02:20:08.410Z,13.20
2022-08-08T02:22:55.391Z,13.10
2022-08-08T02:25:32.922Z,13.10
2022-08-08T03:32:06.503Z,12.50
2022-08-08T03:34:35.196Z,12.50
2022-08-08T03:37:58.853Z,12.40
2022-08-08T03:40:03.778Z,12.40
2022-08-08T03:42:31.969Z,12.30
2022-08-08T03:44:59.577Z,12.30
2022-08-08T03:47:45.162Z,12.20
2022-08-08T03:50:19.773Z,12.20
2022-08-08T03:52:47.763Z,12.30
2022-08-08T03:55:55.107Z,12.20
2022-08-08T03:58:30.194Z,12.20
2022-08-08T04:01:01.599Z,12.30
2022-08-08T04:03:58.256Z,12.30
2022-08-08T04:06:31.058Z,12.30
2022-08-08T04:09:10.846Z,12.20
2022-08-08T04:11:48.599Z,12.20
2022-08-08T04:14:35.382Z,12.20
2022-08-08T04:17:15.647Z,12.20
2022-08-08T04:19:53.007Z,12.20
2022-08-08T04:22:24.159Z,12.20
2022-08-08T04:24:56.264Z,12.40
2022-08-08T04:28:02.534Z,12.60
2022-08-08T04:30:17.985Z,12.80
2022-08-08T04:32:50.043Z,12.80
2022-08-08T04:35:20.328Z,12.70
2022-08-08T04:37:50.999Z,13.10
2022-08-08T04:40:18.523Z,13.50
2022-08-08T04:42:56.082Z,14.00
2022-08-08T04:45:23.943Z,14.50
2022-08-08T04:47:53.427Z,15.00
2022-08-08T04:50:25.427Z,15.30
2022-08-08T04:52:58.559Z,15.70
2022-08-08T04:55:37.675Z,16.10
2022-08-08T04:58:17.537Z,16.20
2022-08-08T05:00:45.032Z,16.50
2022-08-08T05:03:18.851Z,16.70
2022-08-08T05:06:01.499Z,16.90
2022-08-08T05:08:40.894Z,17.10
2022-08-08T05:11:10.257Z,17.40
2022-08-08T05:13:54.831Z,17.70
2022-08-08T05:16:50.925Z,17.90
2022-08-08T05:20:11.161Z,18.20
2022-08-08T05:22:02.188Z,18.40
2022-08-08T05:24:30.834Z,18.90
2022-08-08T05:26:58.440Z,19.00
2022-08-08T05:29:29.155Z,19.10
2022-08-08T05:32:04.641Z,19.40
2022-08-08T05:34:53.433Z,19.80
2022-08-08T05:37:39.431Z,19.90
2022-08-08T05:40:14.737Z,20.40
2022-08-08T05:42:46.319Z,20.30
2022-08-08T05:45:25.565Z,20.00
2022-08-08T05:48:01.539Z,20.10
2022-08-08T05:50:36.733Z,20.20
2022-08-08T05:53:54.060Z,20.60
2022-08-08T05:56:09.510Z,20.70
2022-08-08T05:58:57.131Z,21.40
2022-08-08T06:01:55.387Z,21.60
2022-08-08T06:04:24.156Z,21.80
2022-08-08T06:07:00.215Z,21.50
2022-08-08T06:09:59.382Z,21.40
2022-08-08T06:12:30.323Z,21.60
2022-08-08T06:15:02.794Z,21.60
2022-08-08T06:17:51.035Z,21.90
2022-08-08T06:20:23.107Z,22.10
2022-08-08T06:22:53.530Z,22.50
2022-08-08T06:26:34.663Z,22.90
2022-08-08T06:28:29.687Z,23.40
2022-08-08T06:31:03.407Z,23.60
2022-08-08T06:34:27.097Z,23.00
2022-08-08T06:36:41.869Z,23.10
2022-08-08T06:39:22.416Z,22.80
2022-08-08T06:41:58.849Z,22.70
2022-08-08T06:44:30.400Z,23.10
2022-08-08T06:46:58.995Z,23.30
2022-08-08T06:49:54.879Z,23.50
2022-08-08T06:52:18.019Z,24.20
2022-08-08T06:54:48.698Z,24.30
2022-08-08T06:57:16.203Z,24.30
2022-08-08T07:00:10.700Z,24.40
2022-08-08T07:02:34.664Z,23.80
2022-08-08T07:05:20.431Z,24.20
2022-08-08T07:08:23.097Z,24.70
2022-08-08T07:10:57.264Z,24.60
2022-08-08T07:13:37.414Z,24.30
2022-08-08T07:16:35.162Z,24.40
2022-08-08T07:20:00.330Z,25.30
2022-08-08T07:22:43.521Z,25.70
2022-08-08T07:25:17.196Z,26.00
2022-08-08T07:28:02.523Z,26.50
2022-08-08T07:30:35.447Z,26.30
2022-08-08T07:33:03.168Z,26.20
2022-08-08T07:35:30.776Z,26.50
2022-08-08T07:38:04.795Z,26.30
2022-08-08T07:40:38.346Z,26.10
2022-08-08T07:43:11.427Z,26.30
2022-08-08T07:46:05.506Z,26.50
2022-08-08T07:48:29.704Z,26.80
2022-08-08T07:51:01.808Z,27.40
2022-08-08T07:54:02.594Z,27.20
2022-08-08T07:56:41.507Z,26.40
2022-08-08T07:59:14.895Z,26.10
2022-08-08T08:02:36.802Z,26.50
2022-08-08T08:04:46.712Z,27.30
2022-08-08T08:07:17.221Z,28.10
2022-08-08T08:09:44.818Z,28.10
2022-08-08T08:12:31.924Z,28.10
2022-08-08T08:15:07.382Z,28.00
2022-08-08T08:17:48.909Z,28.60
2022-08-08T08:20:30.403Z,28.70
2022-08-08T08:22:57.701Z,29.00
2022-08-08T08:25:43.720Z,28.80
2022-08-08T08:28:21.599Z,28.80
2022-08-08T08:30:51.917Z,28.70
2022-08-08T08:33:20.388Z,28.80
2022-08-08T08:36:18.987Z,29.40
2022-08-08T08:38:35.932Z,29.60
2022-08-08T08:41:06.859Z,30.00
2022-08-08T08:43:45.061Z,30.00
2022-08-08T08:46:17.645Z,29.70
2022-08-08T08:48:49.232Z,29.60
2022-08-08T08:51:17.826Z,29.60
2022-08-08T08:53:56.589Z,29.90
2022-08-08T08:56:28.633Z,30.30
2022-08-08T08:58:58.032Z,30.10
2022-08-08T09:01:32.165Z,30.20
2022-08-08T09:04:10.090Z,30.00
2022-08-08T09:06:58.881Z,30.10
2022-08-08T09:09:40.145Z,30.30
2022-08-08T09:12:17.676Z,29.80
2022-08-08T09:14:48.734Z,29.90
2022-08-08T09:17:19.632Z,30.10
2022-08-08T09:21:57.825Z,30.60
2022-08-08T09:22:47.237Z,30.90
2022-08-08T09:25:15.362Z,30.50
2022-08-08T09:27:58.182Z,30.40
2022-08-08T09:30:28.033Z,30.90
2022-08-08T09:33:12.926Z,30.40
2022-08-08T09:35:49.910Z,30.80
2022-08-08T09:38:52.869Z,30.90
2022-08-08T09:41:54.814Z,30.40
2022-08-08T09:45:15.585Z,30.60
2022-08-08T09:48:09.448Z,30.80
2022-08-08T09:50:36.869Z,31.40
2022-08-08T09:53:26.636Z,31.50
2022-08-08T09:56:07.111Z,31.50
2022-08-08T09:58:44.718Z,30.80
2022-08-08T10:01:58.125Z,30.70
2022-08-08T10:04:02.218Z,30.70
2022-08-08T10:06:32.362Z,31.50
2022-08-08T10:09:00.111Z,32.50
2022-08-08T10:12:26.529Z,32.40
2022-08-08T10:14:28.667Z,32.10
2022-08-08T10:17:57.322Z,31.40
2022-08-08T10:20:01.568Z,31.70
2022-08-08T10:22:33.559Z,31.90
2022-08-08T10:25:05.750Z,31.20
2022-08-08T10:27:43.714Z,29.90
2022-08-08T10:30:16.456Z,30.00
2022-08-08T10:33:05.204Z,30.30
2022-08-08T10:36:08.163Z,30.10
2022-08-08T10:38:20.602Z,30.40
2022-08-08T10:40:53.196Z,31.10
2022-08-08T10:43:22.884Z,31.10
2022-08-08T10:45:55.819Z,31.20
2022-08-08T10:48:37.385Z,31.70
2022-08-08T10:51:21.101Z,31.70
2022-08-08T10:53:57.541Z,31.00
2022-08-08T10:56:27.328Z,30.60
2022-08-08T10:59:09.523Z,30.40
2022-08-08T11:01:39.434Z,30.20
2022-08-08T11:04:10.819Z,30.60
2022-08-08T11:06:42.017Z,30.50
2022-08-08T11:09:21.223Z,31.00
2022-08-08T11:12:05.478Z,31.20
2022-08-08T11:15:02.939Z,30.90
2022-08-08T11:17:58.688Z,29.70
2022-08-08T11:20:28.048Z,29.30
2022-08-08T11:23:05.757Z,29.70
2022-08-08T11:25:52.260Z,30.40
2022-08-08T11:28:34.538Z,30.40
2022-08-08T11:31:09.461Z,30.80
2022-08-08T11:33:51.143Z,31.30
2022-08-08T11:36:22.071Z,30.90
2022-08-08T11:38:53.931Z,30.40
2022-08-08T11:41:23.312Z,30.50
2022-08-08T11:43:53.787Z,30.80
2022-08-08T11:46:24.411Z,30.90
2022-08-08T11:48:52.830Z,29.90
2022-08-08T11:51:38.185Z,30.00
2022-08-08T11:54:27.212Z,30.00
2022-08-08T11:56:57.968Z,29.60
2022-08-08T11:59:57.793Z,30.30
2022-08-08T12:02:32.202Z,30.60
2022-08-08T12:05:12.471Z,30.90
2022-08-08T12:07:56.765Z,30.30
2022-08-08T12:10:34.026Z,30.60
2022-08-08T12:13:09.805Z,31.20
2022-08-08T12:15:41.743Z,31.60
2022-08-08T12:18:14.801Z,31.90
2022-08-08T12:20:47.234Z,31.60
2022-08-08T12:23:30.649Z,31.70
2022-08-08T12:26:50.049Z,32.00
2022-08-08T12:29:42.312Z,32.50
2022-08-08T12:32:19.603Z,32.10
2022-08-08T12:35:13.646Z,31.50
2022-08-08T12:38:01.082Z,30.90
2022-08-08T12:40:56.317Z,31.40
2022-08-08T12:43:43.556Z,31.50
2022-08-08T12:46:26.147Z,31.70
2022-08-08T12:49:25.450Z,32.20
2022-08-08T12:51:58.516Z,32.40
2022-08-08T12:54:33.404Z,32.30
2022-08-08T12:57:24.294Z,32.50
2022-08-08T13:00:05.932Z,32.40
2022-08-08T13:02:51.153Z,32.20
2022-08-08T13:05:26.539Z,32.90
2022-08-08T13:08:20.159Z,33.30
2022-08-08T13:10:58.281Z,31.80
2022-08-08T13:13:35.065Z,31.40
2022-08-08T13:16:35.575Z,31.50
2022-08-08T13:19:13.979Z,32.10
2022-08-08T13:21:53.668Z,32.20
2022-08-08T13:24:40.812Z,31.50
2022-08-08T13:27:19.124Z,31.40
2022-08-08T13:30:07.121Z,31.10
2022-08-08T13:32:36.541Z,31.90
2022-08-08T13:35:11.781Z,31.80
2022-08-08T13:38:07.121Z,31.30
2022-08-08T13:40:35.604Z,31.30
2022-08-08T13:43:03.935Z,31.20
2022-08-08T13:45:31.511Z,31.20
2022-08-08T13:48:02.820Z,30.90
2022-08-08T13:50:49.435Z,30.40
2022-08-08T13:53:34.076Z,30.00
2022-08-08T13:56:11.299Z,29.90
2022-08-08T13:58:57.399Z,29.60
2022-08-08T14:01:33.074Z,29.40
2022-08-08T14:04:22.333Z,29.20
2022-08-08T14:06:58.863Z,28.80
2022-08-08T14:10:02.905Z,28.30
2022-08-08T14:12:26.301Z,27.60
2022-08-08T14:14:55.342Z,27.50
2022-08-08T14:17:58.471Z,27.20
2022-08-08T14:20:14.820Z,27.10
2022-08-08T14:23:10.070Z,27.20
2022-08-08T14:25:54.021Z,26.80
2022-08-08T14:28:29.240Z,26.60
2022-08-08T14:31:09.307Z,26.50
2022-08-08T14:33:37.101Z,26.50
2022-08-08T14:36:06.709Z,26.70
2022-08-08T14:38:52.455Z,26.60
2022-08-08T14:41:45.305Z,26.40
2022-08-08T14:44:21.020Z,26.20
2022-08-08T14:47:01.159Z,26.10
2022-08-08T14:49:37.810Z,26.20
2022-08-08T14:52:26.130Z,26.00
2022-08-08T14:54:54.486Z,25.60
2022-08-08T14:58:00.624Z,25.60
2022-08-08T15:00:10.038Z,25.60
2022-08-08T15:02:58.868Z,25.70
2022-08-08T15:05:34.182Z,25.70
2022-08-08T15:08:22.177Z,25.90
2022-08-08T15:10:57.755Z,25.90
2022-08-08T15:13:25.217Z,25.80
2022-08-08T15:16:03.915Z,25.60
2022-08-08T15:18:31.545Z,25.60
2022-08-08T15:20:58.694Z,25.50
2022-08-08T15:23:25.737Z,25.30
2022-08-08T15:26:06.078Z,25.30
2022-08-08T15:28:36.438Z,25.20
2022-08-08T15:31:03.697Z,25.30
2022-08-08T15:33:38.739Z,25.40
2022-08-08T15:36:21.053Z,25.40
2022-08-08T15:38:59.889Z,25.40
2022-08-08T15:41:29.860Z,25.40
2022-08-08T15:44:13.368Z,25.50
2022-08-08T15:46:45.626Z,25.50
2022-08-08T15:49:20.684Z,25.50
2022-08-08T15:51:55.324Z,25.50
2022-08-08T15:54:38.996Z,25.40
2022-08-08T15:57:08.872Z,25.40
2022-08-08T16:00:25.819Z,25.50
2022-08-08T16:02:30.916Z,25.50
2022-08-08T16:05:01.967Z,25.30
2022-08-08T16:07:39.552Z,25.10
2022-08-08T16:13:08.806Z,25.10
2022-08-08T16:13:30.575Z,24.90
2022-08-08T16:15:58.597Z,24.80
2022-08-08T16:18:28.133Z,24.80
2022-08-08T16:21:00.318Z,24.90
2022-08-08T16:23:31.795Z,25.00
2022-08-08T16:26:05.081Z,25.00
2022-08-08T16:28:41.578Z,24.80
2022-08-08T16:31:09.584Z,24.80
2022-08-08T16:33:39.305Z,24.80
2022-08-08T16:36:15.871Z,24.80
2022-08-08T16:38:53.670Z,24.80
2022-08-08T16:41:24.057Z,24.60
2022-08-08T16:43:53.034Z,24.60
2022-08-08T16:46:42.843Z,24.50
2022-08-08T16:49:09.345Z,24.50
2022-08-08T16:55:04.906Z,24.60
2022-08-08T16:55:20.752Z,24.60
2022-08-08T16:58:13.252Z,24.60
2022-08-08T17:00:08.872Z,24.50
2022-08-08T17:02:39.351Z,24.40
2022-08-08T17:05:08.591Z,24.40
2022-08-08T17:07:37.605Z,24.40
2022-08-08T17:10:08.920Z,24.40
2022-08-08T17:12:37.898Z,24.40
2022-08-08T17:15:17.933Z,24.40
2022-08-08T17:18:02.588Z,24.30
2022-08-08T17:20:32.106Z,24.30
2022-08-08T17:23:17.564Z,24.30
2022-08-08T17:25:52.487Z,24.20
2022-08-08T17:28:34.538Z,24.10
2022-08-08T17:31:15.029Z,24.00
2022-08-08T17:34:37.525Z,24.10
2022-08-08T17:36:44.185Z,24.10
2022-08-08T17:40:03.914Z,24.00
2022-08-08T17:42:13.336Z,24.00
2022-08-08T17:44:44.271Z,23.90
2022-08-08T17:47:24.062Z,23.80
2022-08-08T17:50:00.665Z,23.70
2022-08-08T17:52:30.072Z,23.70
2022-08-08T17:54:57.862Z,23.70
2022-08-08T17:57:28.803Z,23.60
2022-08-08T18:00:03.739Z,23.60
2022-08-08T18:02:31.931Z,23.50
2022-08-08T18:05:04.687Z,23.50
2022-08-08T18:08:02.573Z,23.50
2022-08-08T18:10:31.213Z,23.40
2022-08-08T18:12:59.162Z,23.40
2022-08-08T18:15:31.345Z,23.30
2022-08-08T18:18:09.724Z,23.30
2022-08-08T18:20:55.090Z,23.20
2022-08-08T18:23:26.849Z,23.10
2022-08-08T18:25:53.896Z,23.10
2022-08-08T18:28:23.597Z,23.00
2022-08-08T18:30:53.287Z,23.00
2022-08-08T18:34:10.632Z,22.90
2022-08-08T18:36:18.727Z,22.80
2022-08-08T18:38:49.827Z,22.80
2022-08-08T18:41:17.001Z,22.70
2022-08-08T18:43:46.576Z,22.70
2022-08-08T18:46:55.111Z,22.60
2022-08-08T18:49:01.040Z,22.40
2022-08-08T18:51:52.483Z,22.40
2022-08-08T18:54:22.395Z,22.30
2022-08-08T18:56:55.941Z,22.20
2022-08-08T18:59:23.685Z,22.10
2022-08-08T19:02:28.135Z,22.00
2022-08-08T19:04:38.531Z,22.00
2022-08-08T19:07:05.853Z,21.90
2022-08-08T19:09:48.918Z,21.90
2022-08-08T19:12:26.333Z,21.80
2022-08-08T19:14:56.019Z,21.70
2022-08-08T19:17:29.216Z,21.60
2022-08-08T19:20:11.552Z,21.50
2022-08-08T19:22:38.723Z,21.50
2022-08-08T19:25:30.276Z,21.40
2022-08-08T19:28:00.060Z,21.40
2022-08-08T19:30:28.051Z,21.30
2022-08-08T19:32:59.051Z,21.30
2022-08-08T19:35:45.092Z,21.20
2022-08-08T19:38:17.299Z,21.10
2022-08-08T19:40:54.591Z,21.10
2022-08-08T19:43:28.135Z,21.10
2022-08-08T19:45:59.703Z,21.00
2022-08-08T19:48:31.021Z,20.90
2022-08-08T19:51:01.061Z,20.80
2022-08-08T19:53:52.588Z,20.80
2022-08-08T19:56:25.489Z,20.70
2022-08-08T19:59:03.612Z,20.70
2022-08-08T20:02:01.784Z,20.70
2022-08-08T20:04:23.625Z,20.60
2022-08-08T20:06:51.155Z,20.60
2022-08-08T20:09:23.186Z,20.50
2022-08-08T20:11:52.137Z,20.50
2022-08-08T20:14:33.810Z,20.50
2022-08-08T20:17:02.984Z,20.40
2022-08-08T20:19:34.160Z,20.30
2022-08-08T20:22:05.037Z,20.30
2022-08-08T20:24:40.843Z,20.30
2022-08-08T20:27:09.222Z,20.20
2022-08-08T20:29:55.357Z,20.20
2022-08-08T20:32:26.898Z,20.20
2022-08-08T20:35:01.397Z,20.20
2022-08-08T20:37:47.186Z,20.10
2022-08-08T20:40:18.026Z,20.10
2022-08-08T20:43:01.338Z,20.00
2022-08-08T20:45:54.583Z,20.10
2022-08-08T20:48:21.491Z,19.90
2022-08-08T20:50:53.373Z,19.90
2022-08-08T20:53:32.209Z,19.80
2022-08-08T20:56:11.741Z,19.80
2022-08-08T20:58:47.806Z,19.80
2022-08-08T21:01:19.872Z,19.80
2022-08-08T21:03:55.121Z,19.70
2022-08-08T21:06:23.279Z,19.70
2022-08-08T21:09:10.325Z,19.60
2022-08-08T21:11:50.875Z,19.60
2022-08-08T21:14:30.545Z,19.50
2022-08-08T21:17:05.943Z,19.50
2022-08-08T21:19:45.284Z,19.50
2022-08-08T21:22:14.486Z,19.50
2022-08-08T21:24:53.457Z,19.40
2022-08-08T21:27:38.890Z,19.40
2022-08-08T21:30:18.839Z,19.30
2022-08-08T21:32:52.134Z,19.30
2022-08-08T21:36:18.001Z,19.20
2022-08-08T21:38:16.078Z,19.20
2022-08-08T21:40:54.994Z,19.20
2022-08-08T21:43:33.185Z,19.10
2022-08-08T21:48:07.243Z,19.10
2022-08-08T21:48:54.241Z,19.00
2022-08-08T21:54:18.118Z,18.90
2022-08-08T21:54:35.682Z,18.90
2022-08-08T21:57:06.242Z,18.80
2022-08-08T22:00:01.699Z,18.70
2022-08-08T22:02:23.410Z,18.70
2022-08-08T22:04:55.988Z,18.70
2022-08-08T22:07:39.523Z,18.60
2022-08-08T22:10:09.373Z,18.50
2022-08-08T22:12:37.484Z,18.50
2022-08-08T22:15:05.662Z,18.50
2022-08-08T22:17:45.195Z,18.60
2022-08-08T22:20:18.807Z,18.50
2022-08-08T22:22:53.546Z,18.40
2022-08-08T22:25:25.331Z,18.40
2022-08-08T22:28:03.022Z,18.30
2022-08-08T22:30:42.521Z,18.40
2022-08-08T22:33:22.106Z,18.30
2022-08-08T22:36:05.543Z,18.30
2022-08-08T22:38:48.031Z,18.20
2022-08-08T22:41:21.396Z,18.20
2022-08-08T22:44:01.839Z,18.10
2022-08-08T22:46:33.068Z,18.10
2022-08-08T22:49:00.641Z,18.00
2022-08-08T22:51:29.086Z,17.90
2022-08-08T22:54:32.565Z,17.90
2022-08-08T22:56:43.463Z,17.90
2022-08-08T22:59:14.468Z,17.90
2022-08-08T23:02:03.620Z,17.80
2022-08-08T23:04:32.485Z,17.70
2022-08-08T23:07:03.063Z,17.70
2022-08-08T23:09:31.252Z,17.60
2022-08-08T23:12:28.650Z,17.60
2022-08-08T23:14:56.350Z,17.50
2022-08-08T23:17:46.847Z,17.40
2022-08-08T23:20:21.850Z,17.40
2022-08-08T23:22:55.229Z,17.40
2022-08-08T23:25:23.505Z,17.30
2022-08-08T23:27:54.373Z,17.30
2022-08-08T23:30:23.804Z,17.20
2022-08-08T23:32:51.408Z,17.10
2022-08-08T23:35:18.766Z,17.10
2022-08-08T23:38:02.277Z,17.00
2022-08-08T23:40:30.861Z,17.00
2022-08-08T23:43:04.309Z,16.90
2022-08-08T23:49:01.956Z,16.90
2022-08-08T23:49:07.546Z,16.80
2022-08-08T23:51:12.858Z,16.80
2022-08-08T23:54:04.902Z,16.70
2022-08-08T23:56:35.758Z,16.70
2022-08-08T23:59:04.802Z,16.60
